Time;durP1;ratioP1;P1;durP2;ratioP2;P2;SDS_P1;SDS_P2;PMS_P1;PMS_P2;Temp;Humidity;BMP_temperature;BMP_pressure;BME280_temperature;BME280_humidity;BME280_pressure;Samples;Min_cycle;Max_cycle;Signal;HPM_P1;HPM_P2
2021/03/02 00:01:01;;;;;;;36.08;21.90;;;;;;;3.16;85.96;103059.69;5267722;28;20032;-66
2021/03/02 00:03:36;;;;;;;35.08;22.00;;;;;;;3.07;85.30;103062.44;5265780;28;20077;-66
2021/03/02 00:06:08;;;;;;;35.03;21.80;;;;;;;3.17;85.79;103067.41;5267055;28;20139;-66
2021/03/02 00:08:40;;;;;;;36.95;22.30;;;;;;;3.03;85.29;103063.38;5266110;28;20115;-66
2021/03/02 00:11:12;;;;;;;37.92;22.40;;;;;;;3.06;85.85;103065.91;5268776;28;20028;-67
2021/03/02 00:13:43;;;;;;;36.33;22.90;;;;;;;3.06;86.19;103071.09;5257318;28;20112;-66
2021/03/02 00:16:24;;;;;;;39.08;22.55;;;;;;;3.01;85.59;103062.56;5265152;28;20490;-66
2021/03/02 00:19:05;;;;;;;36.65;22.25;;;;;;;2.95;86.06;103057.47;5264883;28;20031;-66
2021/03/02 00:21:42;;;;;;;36.60;22.55;;;;;;;2.98;86.60;103057.41;5267721;28;20041;-66
2021/03/02 00:24:35;;;;;;;36.85;22.20;;;;;;;2.99;86.41;103057.38;5266786;28;20055;-66
2021/03/02 00:27:10;;;;;;;35.13;21.30;;;;;;;2.97;85.43;103055.72;5264019;28;20063;-66
2021/03/02 00:29:42;;;;;;;34.28;21.48;;;;;;;2.85;85.82;103056.78;5265724;28;20168;-67
2021/03/02 00:32:18;;;;;;;35.70;22.27;;;;;;;2.87;85.48;103049.84;5267008;28;20111;-66
2021/03/02 00:34:49;;;;;;;39.63;22.35;;;;;;;2.85;85.82;103047.28;5263698;28;20033;-67
2021/03/02 00:37:21;;;;;;;36.28;21.75;;;;;;;2.76;85.30;103054.34;5264763;28;20039;-67
2021/03/02 00:39:52;;;;;;;32.20;20.58;;;;;;;2.68;85.53;103049.28;5265066;28;20029;-66
2021/03/02 00:42:23;;;;;;;35.30;21.45;;;;;;;2.72;86.10;103048.34;5263818;28;20098;-66
2021/03/02 00:44:54;;;;;;;36.42;21.85;;;;;;;2.68;86.04;103046.69;5265261;28;20078;-66
2021/03/02 00:47:26;;;;;;;35.05;22.80;;;;;;;2.67;86.64;103045.00;5265010;28;20036;-67
2021/03/02 00:49:57;;;;;;;36.25;23.65;;;;;;;2.63;86.30;103044.19;5266400;28;20425;-67
2021/03/02 00:52:28;;;;;;;33.58;21.98;;;;;;;2.64;87.16;103047.63;5266148;28;20093;-67
2021/03/02 00:55:00;;;;;;;34.95;21.48;;;;;;;2.62;86.62;103045.09;5264137;28;20032;-67
2021/03/02 00:57:31;;;;;;;37.38;22.92;;;;;;;2.61;87.27;103052.84;5256011;28;20112;-67
2021/03/02 01:00:05;;;;;;;39.83;22.52;;;;;;;2.62;87.01;103046.81;5266607;28;20077;-66
2021/03/02 01:02:37;;;;;;;35.53;21.05;;;;;;;2.61;87.58;103045.97;5264169;28;20037;-67
2021/03/02 01:05:08;;;;;;;35.55;21.58;;;;;;;2.60;87.41;103046.81;5266637;28;20381;-67
2021/03/02 01:07:40;;;;;;;40.17;23.60;;;;;;;2.66;87.48;103051.91;5266132;28;20032;-67
2021/03/02 01:10:12;;;;;;;38.10;22.83;;;;;;;2.53;87.01;103049.53;5266472;28;20026;-67
2021/03/02 01:12:43;;;;;;;36.40;22.33;;;;;;;2.52;87.14;103046.09;5265048;28;20029;-66
2021/03/02 01:15:14;;;;;;;40.65;22.92;;;;;;;2.50;87.01;103055.63;5265397;28;20021;-66
2021/03/02 01:17:46;;;;;;;38.78;22.75;;;;;;;2.52;87.03;103056.44;5265591;28;20044;-67
2021/03/02 01:20:17;;;;;;;35.70;23.08;;;;;;;2.40;86.87;103046.28;5264420;28;20025;-67
2021/03/02 01:22:48;;;;;;;39.03;23.13;;;;;;;2.38;86.99;103053.22;5265539;28;20040;-69
2021/03/02 01:25:21;;;;;;;34.15;20.95;;;;;;;2.35;86.83;103048.97;5244162;28;20477;-66
2021/03/02 01:27:53;;;;;;;36.22;22.25;;;;;;;2.44;87.04;103047.97;5265666;28;20032;-66
2021/03/02 01:30:25;;;;;;;36.58;22.70;;;;;;;2.36;87.05;103044.63;5264527;28;20087;-67
2021/03/02 01:32:57;;;;;;;37.00;21.63;;;;;;;2.37;86.88;103041.16;5265002;28;20031;-66
2021/03/02 01:35:28;;;;;;;35.50;21.95;;;;;;;2.32;86.42;103040.38;5263123;28;20020;-67
2021/03/02 01:37:59;;;;;;;38.72;21.80;;;;;;;2.33;87.05;103034.34;5244701;28;20043;-67
2021/03/02 01:40:31;;;;;;;34.55;21.25;;;;;;;2.30;87.23;103034.38;5267540;28;20405;-66
2021/03/02 01:43:03;;;;;;;36.50;21.38;;;;;;;2.43;87.61;103038.50;5265645;28;20505;-66
2021/03/02 01:45:36;;;;;;;35.78;21.02;;;;;;;2.36;86.90;103040.31;5243017;28;20029;-66
2021/03/02 01:48:08;;;;;;;35.63;20.25;;;;;;;2.31;86.54;103038.66;5265709;28;20024;-67
2021/03/02 01:50:39;;;;;;;35.05;22.20;;;;;;;2.21;86.88;103031.94;5266277;28;20039;-67
2021/03/02 01:53:10;;;;;;;37.13;20.98;;;;;;;2.26;86.69;103036.16;5265086;28;20036;-66
2021/03/02 01:55:41;;;;;;;38.25;21.23;;;;;;;2.16;86.33;103032.00;5266794;28;20027;-66
2021/03/02 01:58:13;;;;;;;35.33;21.48;;;;;;;2.14;86.96;103036.34;5264428;28;20458;-67
2021/03/02 02:00:47;;;;;;;37.50;21.30;;;;;;;2.15;86.83;103027.69;5264532;28;20013;-66
2021/03/02 02:03:27;;;;;;;36.80;20.15;;;;;;;2.11;86.69;103029.47;5264957;28;20369;-67
2021/03/02 02:06:04;;;;;;;36.88;21.75;;;;;;;2.15;87.17;103030.28;5264514;28;20580;-67
2021/03/02 02:08:51;;;;;;;36.80;21.10;;;;;;;2.15;86.98;103023.38;5262543;28;20028;-66
2021/03/02 02:11:33;;;;;;;34.75;20.55;;;;;;;2.01;86.59;103014.97;5266203;28;20393;-66
2021/03/02 02:14:25;;;;;;;36.80;21.20;;;;;;;2.06;87.12;103025.25;5265684;28;20474;-67
2021/03/02 02:17:02;;;;;;;33.97;19.85;;;;;;;1.95;87.03;103020.22;5266722;28;20012;-67
2021/03/02 02:19:42;;;;;;;35.70;20.25;;;;;;;1.90;87.21;103012.53;5255653;28;20051;-66
2021/03/02 02:22:43;;;;;;;35.25;21.58;;;;;;;1.94;87.01;103023.69;5261131;28;20045;-66
2021/03/02 02:25:18;;;;;;;35.40;19.83;;;;;;;1.95;87.17;103022.81;5245552;28;20077;-66
2021/03/02 02:27:55;;;;;;;34.05;20.67;;;;;;;1.94;86.80;103019.38;5243085;28;20033;-66
2021/03/02 02:30:29;;;;;;;36.20;20.40;;;;;;;1.87;86.70;103019.47;5252212;28;20048;-66
2021/03/02 02:33:02;;;;;;;34.28;21.02;;;;;;;1.81;86.51;103012.66;5245591;28;20037;-66
2021/03/02 02:35:35;;;;;;;35.83;20.88;;;;;;;1.88;87.04;103005.66;5241707;28;20056;-66
2021/03/02 02:38:10;;;;;;;33.00;20.40;;;;;;;1.79;86.68;103011.81;5245912;28;20157;-66
2021/03/02 02:40:42;;;;;;;33.58;19.92;;;;;;;1.80;86.38;103010.94;5244915;28;20033;-66
2021/03/02 02:43:15;;;;;;;34.58;20.63;;;;;;;1.73;86.60;103014.47;5249310;28;20037;-67
2021/03/02 02:45:48;;;;;;;36.33;21.13;;;;;;;1.69;86.69;103013.66;5246554;28;20033;-67
2021/03/02 02:48:20;;;;;;;39.42;22.17;;;;;;;1.74;87.41;103008.44;5246747;28;20033;-66
2021/03/02 02:50:53;;;;;;;34.60;19.65;;;;;;;1.72;86.25;103009.34;5248022;28;20030;-66
2021/03/02 02:53:24;;;;;;;32.28;19.85;;;;;;;1.73;86.64;103009.31;5244914;28;20074;-66
2021/03/02 02:55:59;;;;;;;36.28;21.02;;;;;;;1.68;86.93;103001.63;5248167;28;20021;-66
2021/03/02 02:58:42;;;;;;;30.35;19.30;;;;;;;1.74;86.63;103010.16;5246060;28;20037;-66
2021/03/02 03:01:14;;;;;;;35.75;20.13;;;;;;;1.58;86.52;103010.34;5247251;28;20397;-67
2021/03/02 03:03:47;;;;;;;35.15;20.33;;;;;;;1.58;86.54;103000.03;5246231;28;20029;-66
2021/03/02 03:06:19;;;;;;;;;;;;;;;1.84;85.67;103004.00;5243000;28;20095;-67
2021/03/02 03:08:52;;;;;;;29.38;18.20;;;;;;;1.53;85.45;103007.00;5247965;28;19909;-67
2021/03/02 03:11:27;;;;;;;32.33;18.10;;;;;;;1.55;86.00;103000.06;5247423;28;20041;-66
2021/03/02 03:13:59;;;;;;;34.25;20.73;;;;;;;1.53;86.18;103003.56;5248308;28;20095;-67
2021/03/02 03:16:33;;;;;;;32.83;21.52;;;;;;;1.58;86.60;103000.03;5245549;28;20025;-67
2021/03/02 03:19:07;;;;;;;33.13;19.27;;;;;;;1.50;85.89;102994.09;5243094;28;20043;-67
2021/03/02 03:21:39;;;;;;;29.83;18.20;;;;;;;1.46;86.13;103002.78;5247525;28;20116;-67
2021/03/02 03:24:11;;;;;;;30.80;19.55;;;;;;;1.52;86.37;103000.13;5245565;28;20033;-67
2021/03/02 03:26:44;;;;;;;30.13;19.65;;;;;;;1.51;86.63;102995.81;5242781;28;20531;-67
2021/03/02 03:29:16;;;;;;;30.33;20.27;;;;;;;1.41;86.24;102995.09;5251694;28;20062;-67
2021/03/02 03:31:47;;;;;;;36.35;20.83;;;;;;;1.34;86.17;102990.00;5267255;28;20115;-66
2021/03/02 03:34:19;;;;;;;30.77;19.48;;;;;;;1.39;86.73;103001.97;5265168;28;20032;-66
2021/03/02 03:36:52;;;;;;;26.65;17.75;;;;;;;1.40;86.84;102995.09;5265048;28;20420;-67
2021/03/02 03:39:23;;;;;;;31.43;19.20;;;;;;;1.32;86.32;102999.47;5266577;28;20793;-66
2021/03/02 03:41:54;;;;;;;28.83;18.80;;;;;;;1.24;85.86;102991.81;5265243;28;20119;-66
2021/03/02 03:44:26;;;;;;;31.40;18.33;;;;;;;1.24;85.86;103001.31;5266880;28;20043;-66
2021/03/02 03:46:57;;;;;;;32.08;19.20;;;;;;;1.21;86.18;102995.31;5267180;28;20462;-67
2021/03/02 03:49:28;;;;;;;30.80;18.60;;;;;;;1.23;85.86;103000.47;5267749;28;20589;-67
2021/03/02 03:52:04;;;;;;;30.30;19.10;;;;;;;1.29;86.19;103004.69;5268901;28;20071;-67
2021/03/02 03:54:36;;;;;;;32.22;19.38;;;;;;;1.13;86.05;103006.56;5259626;28;20085;-67
2021/03/02 03:57:13;;;;;;;31.17;18.02;;;;;;;1.10;85.98;102998.88;5265263;28;20056;-66
2021/03/02 03:59:45;;;;;;;29.92;18.98;;;;;;;1.07;86.21;102994.59;5265387;28;20061;-67
2021/03/02 04:02:16;;;;;;;28.77;18.40;;;;;;;1.00;85.26;102990.38;5266903;28;20060;-66
2021/03/02 04:04:49;;;;;;;30.55;18.55;;;;;;;1.03;85.63;102999.81;5265167;28;20075;-67
2021/03/02 04:07:21;;;;;;;30.45;17.70;;;;;;;0.95;85.35;102998.16;5266426;28;20418;-67
2021/03/02 04:09:52;;;;;;;28.70;17.67;;;;;;;0.94;85.39;103001.59;5267851;28;20480;-66
2021/03/02 04:12:23;;;;;;;30.08;18.30;;;;;;;0.94;85.67;103000.75;5266789;28;20025;-67
2021/03/02 04:14:55;;;;;;;30.80;18.92;;;;;;;0.93;85.32;103001.63;5266557;28;20028;-67
2021/03/02 04:17:26;;;;;;;31.17;18.27;;;;;;;0.85;85.51;103004.28;5267593;28;20045;-66
2021/03/02 04:19:58;;;;;;;29.85;17.65;;;;;;;0.81;85.71;103004.34;5266059;28;20031;-66
2021/03/02 04:22:33;;;;;;;27.85;17.65;;;;;;;0.81;85.64;103005.19;5267545;28;20052;-66
2021/03/02 04:25:06;;;;;;;32.22;19.48;;;;;;;0.76;86.15;103000.91;5264639;28;20385;-66
2021/03/02 04:27:38;;;;;;;32.22;18.40;;;;;;;0.75;85.60;103000.06;5266170;28;20389;-66
2021/03/02 04:30:10;;;;;;;29.75;18.08;;;;;;;0.73;85.84;103002.69;5267436;28;20056;-66
2021/03/02 04:32:41;;;;;;;35.78;18.80;;;;;;;0.67;85.41;103000.13;5266201;28;20028;-66
2021/03/02 04:35:13;;;;;;;32.00;18.38;;;;;;;0.66;85.68;103008.75;5265263;28;20035;-66
2021/03/02 04:37:44;;;;;;;29.15;17.83;;;;;;;0.64;86.81;102997.59;5265082;28;20036;-66
2021/03/02 04:40:17;;;;;;;27.17;16.75;;;;;;;0.67;85.82;102999.28;5266976;28;20025;-66
2021/03/02 04:42:48;;;;;;;32.20;19.48;;;;;;;0.61;85.79;103002.78;5265014;28;20041;-67
2021/03/02 04:45:19;;;;;;;31.13;18.45;;;;;;;0.60;86.24;103003.63;5269113;28;20906;-67
2021/03/02 04:47:50;;;;;;;30.02;18.17;;;;;;;0.55;85.91;103002.84;5266390;28;20063;-67
2021/03/02 04:50:22;;;;;;;26.27;18.13;;;;;;;0.61;86.19;102997.63;5263211;28;20082;-67
2021/03/02 04:52:53;;;;;;;30.60;18.83;;;;;;;0.62;86.08;102999.34;5265523;28;20040;-67
2021/03/02 04:55:24;;;;;;;30.83;18.50;;;;;;;0.55;85.78;102997.66;5266715;28;20029;-67
2021/03/02 04:57:56;;;;;;;28.75;18.52;;;;;;;0.64;86.15;102996.72;5267524;28;20078;-67
2021/03/02 05:00:27;;;;;;;31.40;18.63;;;;;;;0.52;85.66;102992.53;5261158;28;20132;-67
2021/03/02 05:02:58;;;;;;;33.95;18.38;;;;;;;0.48;86.06;102983.13;5261971;28;20024;-67
2021/03/02 05:05:30;;;;;;;31.13;18.35;;;;;;;0.55;86.13;102979.63;5261355;28;20388;-67
2021/03/02 05:08:01;;;;;;;28.52;18.38;;;;;;;0.58;86.38;102984.75;5263027;28;20078;-67
2021/03/02 05:10:32;;;;;;;29.38;17.60;;;;;;;0.44;85.47;102990.03;5262954;28;20051;-67
2021/03/02 05:13:03;;;;;;;33.83;18.60;;;;;;;0.43;86.35;102980.59;5264131;28;20024;-67
2021/03/02 05:15:36;;;;;;;31.10;18.20;;;;;;;0.43;85.93;102982.31;5262161;28;20033;-67
2021/03/02 05:18:07;;;;;;;39.70;19.13;;;;;;;0.42;85.79;102985.75;5261817;28;20036;-67
2021/03/02 05:20:39;;;;;;;31.58;18.40;;;;;;;0.40;86.32;102984.91;5266367;28;20316;-67
2021/03/02 05:23:10;;;;;;;30.25;18.02;;;;;;;0.42;86.05;102988.34;5264780;28;20083;-67
2021/03/02 05:25:41;;;;;;;29.52;17.33;;;;;;;0.34;85.32;102983.25;5247001;28;20030;-67
2021/03/02 05:28:12;;;;;;;27.35;17.70;;;;;;;0.37;86.42;102979.78;5267264;28;20036;-67
2021/03/02 05:30:44;;;;;;;31.27;17.45;;;;;;;0.32;86.05;102976.38;5264578;28;20049;-67
2021/03/02 05:33:15;;;;;;;32.13;18.00;;;;;;;0.27;86.07;102975.56;5263615;28;20045;-67
2021/03/02 05:35:46;;;;;;;30.90;17.50;;;;;;;0.32;86.46;102973.81;5265495;28;20035;-67
2021/03/02 05:38:18;;;;;;;29.45;17.83;;;;;;;0.23;85.73;102985.91;5264724;28;20036;-67
2021/03/02 05:40:49;;;;;;;29.10;18.15;;;;;;;0.26;86.35;102971.25;5266000;28;20020;-67
2021/03/02 05:43:21;;;;;;;26.65;17.35;;;;;;;0.23;86.57;102967.84;5265845;28;20496;-67
2021/03/02 05:45:52;;;;;;;28.70;18.83;;;;;;;0.30;85.88;102975.53;5264683;28;20294;-67
2021/03/02 05:48:25;;;;;;;30.38;17.50;;;;;;;0.25;85.50;102967.84;5264434;28;20158;-67
2021/03/02 05:50:56;;;;;;;31.67;18.42;;;;;;;0.08;85.74;102962.81;5263697;28;20428;-67
2021/03/02 05:53:27;;;;;;;27.15;17.38;;;;;;;0.13;86.67;102958.47;5266750;28;20032;-67
2021/03/02 05:55:59;;;;;;;29.73;17.33;;;;;;;0.10;85.78;102967.94;5266072;28;20100;-67
2021/03/02 05:58:30;;;;;;;25.17;16.60;;;;;;;0.15;86.39;102967.06;5245234;28;20079;-67
2021/03/02 06:01:03;;;;;;;25.73;16.25;;;;;;;0.16;86.56;102970.50;5263373;28;20044;-67
2021/03/02 06:03:36;;;;;;;26.00;16.65;;;;;;;0.01;85.49;102966.28;5263779;28;20103;-67
2021/03/02 06:06:07;;;;;;;28.10;16.42;;;;;;;0.08;86.20;102967.97;5246219;28;20462;-67
2021/03/02 06:08:38;;;;;;;29.17;17.85;;;;;;;0.10;85.86;102976.53;5263792;28;20067;-67
2021/03/02 06:11:34;;;;;;;28.92;16.83;;;;;;;0.16;85.84;102975.66;5264820;28;20028;-67
2021/03/02 06:14:24;;;;;;;26.92;16.13;;;;;;;0.18;85.92;102967.00;5267590;28;20030;-67
2021/03/02 06:16:56;;;;;;;30.08;18.20;;;;;;;0.14;86.53;102982.53;5265847;28;20508;-67
2021/03/02 06:19:47;;;;;;;30.23;17.95;;;;;;;0.18;86.22;102985.06;5271204;28;20021;-67
2021/03/02 06:22:39;;;;;;;30.55;18.73;;;;;;;0.16;86.83;102973.91;5267506;28;20020;-67
2021/03/02 06:25:31;;;;;;;26.05;18.02;;;;;;;0.19;86.53;102975.59;5270085;28;20036;-67
2021/03/02 06:28:03;;;;;;;28.13;17.92;;;;;;;0.04;86.43;102974.00;5267118;28;20117;-67
2021/03/02 06:30:36;;;;;;;29.30;17.50;;;;;;;0.09;86.26;102979.13;5268529;28;20053;-66
2021/03/02 06:33:16;;;;;;;;;;;;;;;0.27;86.00;102980.72;5269222;28;20044;-66
2021/03/02 06:35:47;;;;;;;27.25;17.20;;;;;;;0.14;86.53;102980.78;5266670;28;20003;-66
2021/03/02 06:38:32;;;;;;;30.63;17.08;;;;;;;0.18;86.21;102985.06;5268119;28;20125;-66
2021/03/02 06:41:04;;;;;;;33.63;18.13;;;;;;;0.10;86.68;102989.41;5261632;28;20498;-66
2021/03/02 06:43:37;;;;;;;31.58;18.48;;;;;;;0.13;87.36;102994.56;5266364;28;20068;-66
2021/03/02 06:46:10;;;;;;;30.75;17.80;;;;;;;0.07;87.71;102989.44;5264707;28;20024;-66
2021/03/02 06:48:59;;;;;;;33.03;18.85;;;;;;;0.15;86.78;102990.25;5266514;28;20077;-66
2021/03/02 06:51:39;;;;;;;29.73;17.65;;;;;;;0.04;87.59;102999.78;5264933;28;20036;-67
2021/03/02 06:54:24;;;;;;;36.13;18.17;;;;;;;0.02;87.32;102993.75;5268186;28;20033;-67
2021/03/02 06:57:00;;;;;;;29.25;16.85;;;;;;;0.03;87.20;102992.03;5247620;28;20032;-67
2021/03/02 06:59:32;;;;;;;32.90;18.30;;;;;;;0.02;87.24;102998.91;5269712;28;20033;-67
2021/03/02 07:02:03;;;;;;;35.08;18.52;;;;;;;0.02;87.75;103008.38;5268261;28;20083;-67
2021/03/02 07:04:36;;;;;;;33.58;18.00;;;;;;;0.00;87.44;103003.25;5268194;28;20036;-67
2021/03/02 07:07:17;;;;;;;30.63;18.13;;;;;;;0.05;87.46;102990.31;5267600;28;20020;-67
2021/03/02 07:09:49;;;;;;;31.13;18.23;;;;;;;0.04;87.64;102997.22;5251853;28;20034;-67
2021/03/02 07:12:20;;;;;;;31.40;17.63;;;;;;;0.07;86.74;102999.75;5265322;28;20032;-67
2021/03/02 07:14:52;;;;;;;37.80;21.15;;;;;;;0.14;87.79;102998.84;5268737;28;20039;-67
2021/03/02 07:17:23;;;;;;;33.13;21.05;;;;;;;0.22;88.19;102996.19;5259081;28;20025;-67
2021/03/02 07:19:57;;;;;;;34.90;22.60;;;;;;;0.23;88.31;102995.34;5243587;28;20383;-67
2021/03/02 07:22:31;;;;;;;34.33;20.85;;;;;;;0.29;88.90;103002.19;5267076;28;20344;-67
2021/03/02 07:25:07;;;;;;;41.17;23.55;;;;;;;0.42;89.76;102991.78;5262573;28;20071;-67
2021/03/02 07:27:43;;;;;;;36.63;22.45;;;;;;;0.44;89.67;102996.91;5247531;28;20052;-67
2021/03/02 07:30:15;;;;;;;40.03;25.52;;;;;;;0.52;90.08;102999.41;5265851;28;20119;-67
2021/03/02 07:32:47;;;;;;;40.70;24.70;;;;;;;0.58;91.45;103005.41;5264274;28;20073;-67
2021/03/02 07:35:24;;;;;;;44.80;25.38;;;;;;;0.63;90.80;103001.03;5246251;28;20480;-67
2021/03/02 07:38:11;;;;;;;41.17;25.13;;;;;;;0.82;91.91;102999.16;5265243;28;20033;-67
2021/03/02 07:40:45;;;;;;;45.92;27.90;;;;;;;0.99;93.23;103009.31;5261734;28;20175;-67
2021/03/02 07:43:30;;;;;;;;;;;;;;;1.04;90.77;103004.09;5266952;28;20055;-66
2021/03/02 07:46:26;;;;;;;41.88;25.30;;;;;;;1.11;91.77;103001.44;5256002;28;19929;-67
2021/03/02 07:49:23;;;;;;;49.42;27.70;;;;;;;1.29;93.29;103002.09;5261386;28;20029;-67
2021/03/02 07:52:01;;;;;;;50.85;28.55;;;;;;;1.50;94.23;103007.03;5265164;28;20025;-67
2021/03/02 07:54:33;;;;;;;45.90;27.63;;;;;;;1.46;92.21;103008.78;5255817;28;20038;-67
2021/03/02 07:57:14;;;;;;;44.85;27.50;;;;;;;1.61;92.86;103007.75;5259541;28;20405;-67
2021/03/02 08:00:06;;;;;;;44.85;27.85;;;;;;;1.72;92.87;103014.50;5259246;28;20122;-67
2021/03/02 08:02:37;;;;;;;48.28;29.25;;;;;;;1.93;92.94;103011.63;5264161;28;20033;-67
2021/03/02 08:05:27;;;;;;;45.45;27.33;;;;;;;1.97;91.50;103013.31;5265705;28;20359;-67
2021/03/02 08:08:23;;;;;;;40.83;25.98;;;;;;;2.05;91.60;103011.47;5263261;28;20029;-67
2021/03/02 08:10:59;;;;;;;44.10;27.20;;;;;;;2.25;91.70;103013.75;5244836;28;20028;-67
2021/03/02 08:13:43;;;;;;;42.75;24.65;;;;;;;2.35;90.25;103010.16;5264979;28;20032;-67
2021/03/02 08:16:14;;;;;;;;;;;;;;;2.41;90.90;103014.38;5256605;28;20035;-67
2021/03/02 08:18:45;;;;;;;40.93;24.57;;;;;;;2.63;89.70;103010.56;5263290;28;20340;-67
2021/03/02 08:21:19;;;;;;;42.10;23.77;;;;;;;2.76;89.36;103018.94;5264070;28;20314;-67
2021/03/02 08:23:57;;;;;;;;;;;;;;;2.84;88.97;103022.28;5263635;28;20033;-66
2021/03/02 08:26:36;;;;;;;35.00;22.95;;;;;;;2.95;88.19;103016.03;5262052;28;20365;-67
2021/03/02 08:29:15;;;;;;;33.72;22.40;;;;;;;2.99;88.24;103015.94;5262287;28;20049;-67
2021/03/02 08:31:49;;;;;;;37.45;22.83;;;;;;;3.18;87.42;103016.47;5258725;28;20029;-68
2021/03/02 08:34:20;;;;;;;;;;;;;;;3.22;87.83;103014.69;5261066;28;20037;-67
2021/03/02 08:36:52;;;;;;;35.15;22.08;;;;;;;3.37;87.07;103011.78;5260221;28;19915;-66
2021/03/02 08:39:24;;;;;;;33.22;20.48;;;;;;;3.51;86.40;103019.28;5261871;28;20032;-67
2021/03/02 08:41:55;;;;;;;33.03;21.42;;;;;;;3.57;86.92;103027.81;5263657;28;20033;-67
2021/03/02 08:44:26;;;;;;;31.42;21.48;;;;;;;3.64;86.02;103020.75;5262641;28;20091;-67
2021/03/02 08:46:58;;;;;;;30.17;20.35;;;;;;;3.83;85.71;103029.00;5247919;28;20389;-67
2021/03/02 08:49:29;;;;;;;29.83;19.73;;;;;;;3.96;84.89;103022.66;5263079;28;20405;-67
2021/03/02 08:52:02;;;;;;;28.00;18.63;;;;;;;4.07;84.89;103028.44;5263290;28;20036;-67
2021/03/02 08:54:49;;;;;;;25.40;17.75;;;;;;;4.14;83.62;103019.66;5264583;28;20032;-67
2021/03/02 08:57:20;;;;;;;24.60;17.10;;;;;;;4.26;83.61;103028.03;5265321;28;20485;-67
2021/03/02 08:59:52;;;;;;;26.40;17.50;;;;;;;4.40;82.29;103015.59;5265049;28;20044;-67
2021/03/02 09:02:23;;;;;;;21.98;15.93;;;;;;;4.60;81.07;103026.31;5266412;28;20052;-67
2021/03/02 09:04:54;;;;;;;21.75;16.38;;;;;;;4.73;80.97;103029.47;5264782;28;20062;-67
2021/03/02 09:07:25;;;;;;;19.77;15.32;;;;;;;4.79;80.76;103026.72;5263250;28;20035;-67
2021/03/02 09:09:57;;;;;;;19.75;15.10;;;;;;;4.98;79.94;103028.84;5261492;28;20037;-67
2021/03/02 09:12:28;;;;;;;21.35;15.60;;;;;;;5.15;79.40;103025.78;5260731;28;20021;-68
2021/03/02 09:14:59;;;;;;;25.00;16.40;;;;;;;5.29;79.99;103024.53;5263653;28;20029;-67
2021/03/02 09:17:30;;;;;;;21.55;15.32;;;;;;;5.46;77.26;103018.88;5265528;28;20025;-67
2021/03/02 09:20:04;;;;;;;17.45;13.77;;;;;;;5.61;77.24;103017.56;5265972;28;20035;-67
2021/03/02 09:22:35;;;;;;;20.02;14.63;;;;;;;5.70;77.30;103022.50;5264813;28;20032;-67
2021/03/02 09:25:07;;;;;;;19.48;14.63;;;;;;;5.86;76.63;103020.28;5264895;28;20028;-67
2021/03/02 09:27:38;;;;;;;23.75;14.75;;;;;;;5.92;76.38;103022.75;5265070;28;20032;-68
2021/03/02 09:30:11;;;;;;;17.17;13.43;;;;;;;5.98;75.56;103009.53;5243637;28;20060;-67
2021/03/02 09:32:42;;;;;;;18.45;13.88;;;;;;;6.25;74.19;103012.16;5265776;28;20365;-67
2021/03/02 09:35:14;;;;;;;17.48;14.05;;;;;;;6.40;73.74;103021.25;5261684;28;20023;-67
2021/03/02 09:37:45;;;;;;;18.33;12.82;;;;;;;6.58;72.12;103021.50;5259616;28;20047;-67
2021/03/02 09:40:17;;;;;;;18.08;13.23;;;;;;;6.75;71.78;103023.53;5262885;28;20465;-67
2021/03/02 09:42:54;;;;;;;18.65;12.27;;;;;;;6.92;70.64;103022.94;5260807;28;20421;-67
2021/03/02 09:45:35;;;;;;;17.23;11.90;;;;;;;7.04;70.72;103025.13;5258365;28;20027;-68
2021/03/02 09:48:08;;;;;;;15.82;11.77;;;;;;;7.19;69.94;103030.72;5239818;28;20040;-67
2021/03/02 09:50:39;;;;;;;20.73;13.05;;;;;;;7.24;70.84;103021.00;5258828;28;20068;-67
2021/03/02 09:53:16;;;;;;;17.70;12.43;;;;;;;7.38;70.46;103026.53;5264454;28;20138;-67
2021/03/02 09:55:47;;;;;;;17.45;12.63;;;;;;;7.40;70.58;103019.53;5255534;28;20025;-68
2021/03/02 09:58:20;;;;;;;16.75;12.68;;;;;;;7.49;69.78;103024.38;5264269;28;20075;-68
2021/03/02 10:00:54;;;;;;;19.95;12.75;;;;;;;7.66;69.06;103017.72;5264509;28;20029;-67
2021/03/02 10:03:33;;;;;;;15.05;12.15;;;;;;;7.72;69.03;103023.53;5260509;28;20029;-67
2021/03/02 10:06:06;;;;;;;18.80;11.57;;;;;;;7.82;69.46;103023.19;5259702;28;20119;-67
2021/03/02 10:08:39;;;;;;;17.50;11.90;;;;;;;7.99;68.06;103015.53;5249050;28;20028;-68
2021/03/02 10:11:10;;;;;;;;;;;;;;;8.14;67.54;103019.31;5258539;28;20040;-68
2021/03/02 10:13:53;;;;;;;13.80;10.60;;;;;;;8.28;67.34;103012.63;5263463;28;19912;-67
2021/03/02 10:16:27;;;;;;;13.63;11.20;;;;;;;8.47;65.55;103019.75;5262664;28;20473;-67
2021/03/02 10:19:04;;;;;;;15.90;10.73;;;;;;;8.63;65.70;103014.72;5255475;28;20048;-68
2021/03/02 10:21:35;;;;;;;14.80;11.00;;;;;;;8.69;65.88;103009.25;5263916;28;20070;-68
2021/03/02 10:24:07;;;;;;;16.03;11.63;;;;;;;8.81;65.87;103010.50;5259294;28;20495;-67
2021/03/02 10:26:39;;;;;;;17.45;11.55;;;;;;;8.82;66.21;103006.97;5257785;28;20284;-67
2021/03/02 10:29:11;;;;;;;15.73;11.18;;;;;;;8.93;63.95;103007.34;5261349;28;20567;-67
2021/03/02 10:31:43;;;;;;;16.23;12.25;;;;;;;9.06;64.06;103002.47;5258650;28;20086;-68
2021/03/02 10:34:18;;;;;;;16.15;12.23;;;;;;;9.11;64.31;102998.72;5261052;28;20029;-67
2021/03/02 10:36:54;;;;;;;17.27;11.68;;;;;;;9.33;62.79;103003.00;5243414;28;20462;-67
2021/03/02 10:39:25;;;;;;;16.25;11.40;;;;;;;9.51;62.43;103002.16;5262379;28;20077;-67
2021/03/02 10:41:56;;;;;;;17.63;11.32;;;;;;;9.55;62.27;102993.25;5256876;28;20033;-67
2021/03/02 10:44:29;;;;;;;15.05;11.57;;;;;;;9.64;62.65;102998.03;5260264;28;20586;-69
2021/03/02 10:47:00;;;;;;;16.73;11.15;;;;;;;9.78;59.81;102999.19;5251160;28;20033;-69
2021/03/02 10:49:31;;;;;;;14.65;11.07;;;;;;;9.83;59.74;103003.28;5258044;28;20032;-67
2021/03/02 10:52:06;;;;;;;16.52;11.20;;;;;;;9.95;61.32;102992.22;5263813;28;20119;-70
2021/03/02 10:54:38;;;;;;;15.70;11.68;;;;;;;9.93;60.79;102990.59;5233749;28;20043;-70
2021/03/02 10:57:09;;;;;;;20.35;11.57;;;;;;;10.12;61.19;102995.81;5252517;28;20044;-67
2021/03/02 10:59:41;;;;;;;15.20;11.30;;;;;;;10.09;59.42;102991.56;5257616;28;20401;-68
2021/03/02 11:02:12;;;;;;;17.10;11.02;;;;;;;10.31;59.75;102996.63;5263634;28;20488;-67
2021/03/02 11:04:43;;;;;;;18.65;11.73;;;;;;;10.40;57.96;102996.16;5262652;28;20120;-68
2021/03/02 11:07:14;;;;;;;14.40;9.93;;;;;;;10.53;58.26;102996.41;5258544;28;20021;-69
2021/03/02 11:09:46;;;;;;;16.40;11.02;;;;;;;10.65;58.48;102984.47;5237366;28;20028;-67
2021/03/02 11:12:17;;;;;;;15.75;10.68;;;;;;;10.73;57.13;102987.53;5251045;28;20109;-67
2021/03/02 11:14:48;;;;;;;16.52;10.98;;;;;;;10.74;56.62;102986.59;5259752;28;20097;-67
2021/03/02 11:17:20;;;;;;;17.20;11.02;;;;;;;11.10;56.37;102988.22;5262849;28;20078;-67
2021/03/02 11:19:51;;;;;;;16.92;11.02;;;;;;;11.10;55.03;102985.59;5264992;28;20522;-68
2021/03/02 11:22:23;;;;;;;13.18;10.07;;;;;;;11.31;55.89;102981.00;5266910;28;20083;-68
2021/03/02 11:24:54;;;;;;;14.57;11.18;;;;;;;11.32;55.76;102974.81;5246637;28;20505;-68
2021/03/02 11:27:26;;;;;;;13.73;10.70;;;;;;;11.43;54.24;102975.94;5263967;28;20028;-68
2021/03/02 11:29:57;;;;;;;14.07;10.05;;;;;;;11.46;55.48;102972.31;5261864;28;20044;-68
2021/03/02 11:32:28;;;;;;;17.70;11.88;;;;;;;11.62;54.63;102965.28;5263861;28;20029;-68
2021/03/02 11:34:59;;;;;;;15.85;11.25;;;;;;;11.67;52.22;102962.41;5263128;28;20033;-67
2021/03/02 11:37:31;;;;;;;15.23;11.13;;;;;;;11.81;51.54;102959.00;5260853;28;20108;-67
2021/03/02 11:40:04;;;;;;;17.67;11.25;;;;;;;11.73;53.44;102956.78;5262247;28;20028;-68
2021/03/02 11:42:36;;;;;;;15.48;10.88;;;;;;;11.88;50.65;102957.75;5264741;28;20020;-68
2021/03/02 11:45:11;;;;;;;17.20;11.48;;;;;;;12.06;51.78;102959.34;5263653;28;20520;-68
2021/03/02 11:47:42;;;;;;;19.40;11.45;;;;;;;12.07;49.71;102957.53;5264772;28;20040;-68
2021/03/02 11:50:14;;;;;;;15.80;11.40;;;;;;;12.10;50.07;102957.38;5266772;28;20028;-68